createdAt,value
2023-01-15T00:00:13.441Z,22.60
2023-01-15T00:01:13.460Z,23.00
2023-01-15T00:02:13.491Z,22.80
2023-01-15T00:03:13.436Z,23.40
2023-01-15T00:04:13.447Z,22.80
2023-01-15T00:05:13.374Z,24.00
2023-01-15T00:06:13.366Z,22.60
2023-01-15T00:07:13.369Z,24.60
2023-01-15T00:08:13.329Z,23.20
2023-01-15T00:09:13.323Z,23.40
2023-01-15T00:10:13.341Z,23.20
2023-01-15T00:11:13.292Z,23.00
2023-01-15T00:12:13.298Z,22.70
2023-01-15T00:13:13.279Z,22.70
2023-01-15T00:14:13.251Z,22.80
2023-01-15T00:15:14.658Z,22.60
2023-01-15T00:16:13.246Z,23.90
2023-01-15T00:17:13.253Z,23.20
2023-01-15T00:18:13.233Z,23.60
2023-01-15T00:19:13.211Z,24.10
2023-01-15T00:20:13.171Z,23.20
2023-01-15T00:21:13.183Z,23.50
2023-01-15T00:22:13.180Z,22.90
2023-01-15T00:23:13.130Z,23.50
2023-01-15T00:24:13.114Z,23.80
2023-01-15T00:25:13.110Z,23.00
2023-01-15T00:26:13.102Z,23.00
2023-01-15T00:27:13.091Z,22.50
2023-01-15T00:28:13.124Z,23.40
2023-01-15T00:29:13.082Z,23.40
2023-01-15T00:30:13.055Z,23.60
2023-01-15T00:31:13.096Z,23.90
2023-01-15T00:32:13.034Z,23.00
2023-01-15T00:33:13.042Z,23.20
2023-01-15T00:34:13.011Z,22.70
2023-01-15T00:35:12.997Z,22.60
2023-01-15T00:36:12.970Z,23.40
2023-01-15T00:37:12.990Z,23.00
2023-01-15T00:38:12.982Z,22.80
2023-01-15T00:39:12.942Z,23.10
2023-01-15T00:40:12.917Z,22.70
2023-01-15T00:41:12.909Z,23.80
2023-01-15T00:42:12.883Z,23.10
2023-01-15T00:43:12.944Z,23.00
2023-01-15T00:44:12.883Z,23.50
2023-01-15T00:45:12.851Z,22.60
2023-01-15T00:46:12.875Z,22.90
2023-01-15T00:47:12.852Z,22.40
2023-01-15T00:48:12.804Z,22.90
2023-01-15T00:49:12.805Z,22.70
2023-01-15T00:50:12.799Z,22.40
2023-01-15T00:51:12.803Z,22.60
2023-01-15T00:52:12.760Z,22.60
2023-01-15T00:53:12.762Z,23.20
2023-01-15T00:54:12.751Z,22.30
2023-01-15T00:55:12.767Z,22.70
2023-01-15T00:56:12.709Z,23.10
2023-01-15T00:57:12.692Z,22.20
2023-01-15T00:58:12.684Z,21.90
2023-01-15T00:59:12.676Z,22.50
2023-01-15T01:00:12.665Z,22.10
2023-01-15T01:01:12.789Z,21.80
2023-01-15T01:02:12.721Z,22.20
2023-01-15T01:03:12.614Z,22.50
2023-01-15T01:04:12.597Z,22.80
2023-01-15T01:05:12.600Z,21.90
2023-01-15T01:06:12.575Z,21.80
2023-01-15T01:07:12.582Z,22.80
2023-01-15T01:08:12.545Z,21.90
2023-01-15T01:09:12.564Z,22.30
2023-01-15T01:10:12.533Z,21.80
2023-01-15T01:11:12.527Z,22.20
2023-01-15T01:12:12.546Z,22.40
2023-01-15T01:13:12.502Z,22.20
2023-01-15T01:14:12.502Z,23.30
2023-01-15T01:15:12.487Z,22.30
2023-01-15T01:16:12.476Z,22.30
2023-01-15T01:17:12.443Z,22.70
2023-01-15T01:18:12.413Z,22.20
2023-01-15T01:19:12.713Z,21.60
2023-01-15T01:20:12.401Z,22.60
2023-01-15T01:21:12.381Z,22.40
2023-01-15T01:22:12.361Z,22.50
2023-01-15T01:23:12.375Z,22.20
2023-01-15T01:24:12.341Z,21.90
2023-01-15T01:25:12.357Z,22.10
2023-01-15T01:26:12.333Z,22.60
2023-01-15T01:27:12.316Z,21.80
2023-01-15T01:28:12.339Z,22.30
2023-01-15T01:29:12.290Z,22.60
2023-01-15T01:30:12.264Z,23.30
2023-01-15T01:31:12.278Z,22.40
2023-01-15T01:32:12.254Z,22.10
2023-01-15T01:33:12.222Z,21.40
2023-01-15T01:34:12.206Z,22.20
2023-01-15T01:35:12.230Z,22.10
2023-01-15T01:36:12.206Z,21.90
2023-01-15T01:37:12.189Z,22.20
2023-01-15T01:38:12.163Z,22.70
2023-01-15T01:39:12.178Z,22.10
2023-01-15T01:40:12.147Z,22.00
2023-01-15T01:41:12.119Z,21.50
2023-01-15T01:42:12.144Z,21.80
2023-01-15T01:43:12.093Z,21.70
2023-01-15T01:44:12.085Z,22.00
2023-01-15T01:45:12.072Z,22.50
2023-01-15T01:46:12.068Z,21.60
2023-01-15T01:47:12.055Z,22.10
2023-01-15T01:48:12.037Z,22.10
2023-01-15T01:49:12.012Z,22.20
2023-01-15T01:50:12.013Z,21.30
2023-01-15T01:51:11.991Z,22.00
2023-01-15T01:52:12.002Z,21.00
2023-01-15T01:53:11.987Z,21.10
2023-01-15T01:54:11.968Z,21.90
2023-01-15T01:55:11.941Z,21.40
2023-01-15T01:56:11.928Z,21.50
2023-01-15T01:57:11.913Z,20.80
2023-01-15T01:58:11.916Z,22.00
2023-01-15T01:59:11.884Z,21.40
2023-01-15T02:00:11.908Z,21.90
2023-01-15T02:01:11.985Z,21.00
2023-01-15T02:02:11.915Z,21.20
2023-01-15T02:03:11.825Z,21.90
2023-01-15T02:04:11.842Z,21.00
2023-01-15T02:05:11.795Z,22.30
2023-01-15T02:06:11.811Z,22.10
2023-01-15T02:07:11.810Z,22.20
2023-01-15T02:08:11.776Z,22.60
2023-01-15T02:09:11.753Z,22.60
2023-01-15T02:10:11.775Z,21.60
2023-01-15T02:11:11.742Z,21.70
2023-01-15T02:12:11.737Z,21.30
2023-01-15T02:13:11.706Z,22.30
2023-01-15T02:14:11.709Z,21.40
2023-01-15T02:15:11.676Z,21.20
2023-01-15T02:16:11.722Z,22.00
2023-01-15T02:17:11.674Z,21.80
2023-01-15T02:18:11.643Z,21.40
2023-01-15T02:19:11.638Z,21.80
2023-01-15T02:20:11.625Z,22.20
2023-01-15T02:21:11.593Z,21.80
2023-01-15T02:22:11.595Z,21.90
2023-01-15T02:23:11.559Z,22.70
2023-01-15T02:24:11.558Z,21.80
2023-01-15T02:25:11.548Z,22.30
2023-01-15T02:26:11.536Z,22.60
2023-01-15T02:27:11.558Z,22.00
2023-01-15T02:28:11.511Z,22.90
2023-01-15T02:29:11.514Z,22.20
2023-01-15T02:30:11.496Z,22.40
2023-01-15T02:31:11.472Z,22.00
2023-01-15T02:32:11.468Z,21.90
2023-01-15T02:33:11.462Z,23.20
2023-01-15T02:34:11.435Z,21.50
2023-01-15T02:35:11.451Z,23.50
2023-01-15T02:36:11.446Z,22.40
2023-01-15T02:37:11.377Z,22.80
2023-01-15T02:38:11.397Z,22.00
2023-01-15T02:39:11.354Z,22.40
2023-01-15T02:40:11.363Z,22.70
2023-01-15T02:41:11.339Z,23.40
2023-01-15T02:42:11.337Z,22.80
2023-01-15T02:43:11.306Z,23.40
2023-01-15T02:44:11.305Z,23.80
2023-01-15T02:45:11.293Z,22.80
2023-01-15T02:46:11.322Z,23.50
2023-01-15T02:47:11.252Z,23.10
2023-01-15T02:48:11.264Z,23.20
2023-01-15T02:49:11.224Z,23.60
2023-01-15T02:50:11.250Z,23.10
2023-01-15T02:51:11.205Z,23.80
2023-01-15T02:52:11.243Z,23.80
2023-01-15T02:53:11.222Z,23.90
2023-01-15T02:54:11.166Z,24.20
2023-01-15T02:55:11.155Z,24.40
2023-01-15T02:56:11.177Z,24.00
2023-01-15T02:57:11.135Z,24.50
2023-01-15T02:58:11.150Z,23.90
2023-01-15T02:59:11.095Z,24.50
2023-01-15T03:00:11.107Z,24.40
2023-01-15T03:01:11.160Z,23.50
2023-01-15T03:02:11.157Z,24.70
2023-01-15T03:03:11.086Z,24.10
2023-01-15T03:04:11.055Z,23.90
2023-01-15T03:05:11.026Z,24.30
2023-01-15T03:06:11.037Z,24.40
2023-01-15T03:07:11.005Z,24.10
2023-01-15T03:08:10.985Z,24.60
2023-01-15T03:09:10.977Z,24.70
2023-01-15T03:10:10.965Z,24.10
2023-01-15T03:11:10.975Z,24.50
2023-01-15T03:12:10.940Z,24.50
2023-01-15T03:13:10.920Z,24.10
2023-01-15T03:14:10.918Z,24.20
2023-01-15T03:15:10.908Z,24.30
2023-01-15T03:16:10.989Z,23.80
2023-01-15T03:17:10.879Z,23.90
2023-01-15T03:18:10.873Z,24.30
2023-01-15T03:19:10.855Z,24.60
2023-01-15T03:20:10.838Z,24.50
2023-01-15T03:21:10.805Z,24.60
2023-01-15T03:22:10.826Z,25.20
2023-01-15T03:23:10.785Z,24.60
2023-01-15T03:24:10.780Z,24.90
2023-01-15T03:25:10.757Z,24.50
2023-01-15T03:26:10.771Z,24.90
2023-01-15T03:27:10.779Z,24.00
2023-01-15T03:28:10.750Z,24.50
2023-01-15T03:29:10.723Z,25.20
2023-01-15T03:30:10.728Z,24.20
2023-01-15T03:31:10.699Z,23.60
2023-01-15T03:32:10.682Z,24.40
2023-01-15T03:33:10.654Z,23.90
2023-01-15T03:34:10.652Z,23.50
2023-01-15T03:35:10.625Z,24.20
2023-01-15T03:36:10.646Z,23.80
2023-01-15T03:37:10.615Z,23.30
2023-01-15T03:38:10.610Z,24.00
2023-01-15T03:39:10.580Z,23.70
2023-01-15T03:40:10.594Z,24.40
2023-01-15T03:41:10.580Z,23.90
2023-01-15T03:42:10.558Z,24.10
2023-01-15T03:43:10.540Z,25.00
2023-01-15T03:44:10.553Z,23.50
2023-01-15T03:45:10.508Z,24.80
2023-01-15T03:46:10.578Z,23.80
2023-01-15T03:47:10.464Z,24.60
2023-01-15T03:48:10.473Z,24.50
2023-01-15T03:49:10.445Z,23.90
2023-01-15T03:50:10.442Z,23.60
2023-01-15T03:51:10.436Z,24.00
2023-01-15T03:52:10.423Z,24.10
2023-01-15T03:53:10.407Z,25.00
2023-01-15T03:54:10.468Z,23.90
2023-01-15T03:55:10.385Z,24.70
2023-01-15T03:56:10.402Z,24.60
2023-01-15T03:57:10.336Z,24.10
2023-01-15T03:58:10.377Z,24.60
2023-01-15T03:59:10.362Z,24.60
2023-01-15T04:00:10.307Z,24.30
2023-01-15T04:01:10.397Z,23.70
2023-01-15T04:02:10.337Z,24.50
2023-01-15T04:03:10.298Z,24.00
2023-01-15T04:04:10.348Z,24.40
2023-01-15T04:05:10.269Z,24.50
2023-01-15T04:06:10.238Z,24.50
2023-01-15T04:07:10.235Z,24.80
2023-01-15T04:08:10.248Z,24.20
2023-01-15T04:09:10.215Z,25.20
2023-01-15T04:10:10.207Z,25.40
2023-01-15T04:11:10.202Z,25.40
2023-01-15T04:12:10.191Z,26.10
2023-01-15T04:13:10.136Z,25.80
2023-01-15T04:14:10.149Z,25.60
2023-01-15T04:15:10.109Z,25.60
2023-01-15T04:16:10.133Z,26.00
2023-01-15T04:17:10.080Z,24.90
2023-01-15T04:18:10.083Z,26.30
2023-01-15T04:19:10.048Z,25.50
2023-01-15T04:20:10.062Z,25.40
2023-01-15T04:21:10.049Z,25.30
2023-01-15T04:22:10.027Z,25.80
2023-01-15T04:23:10.044Z,25.30
2023-01-15T04:24:10.020Z,27.10
2023-01-15T04:25:09.984Z,26.20
2023-01-15T04:26:09.974Z,25.60
2023-01-15T04:27:09.973Z,26.20
2023-01-15T04:28:09.967Z,25.70
2023-01-15T04:29:09.936Z,26.20
2023-01-15T04:30:09.939Z,25.90
2023-01-15T04:31:09.936Z,26.20
2023-01-15T04:32:09.907Z,26.70
2023-01-15T04:33:09.869Z,25.90
2023-01-15T04:34:09.885Z,26.50
2023-01-15T04:35:09.851Z,25.70
2023-01-15T04:36:09.848Z,25.40
2023-01-15T04:37:09.820Z,26.70
2023-01-15T04:38:09.828Z,24.40
2023-01-15T04:39:09.805Z,24.90
2023-01-15T04:40:09.842Z,24.80
2023-01-15T04:41:09.768Z,27.00
2023-01-15T04:42:09.790Z,26.30
2023-01-15T04:43:16.792Z,26.80
2023-01-15T04:44:09.749Z,26.40
2023-01-15T04:45:09.731Z,28.00
2023-01-15T04:46:09.779Z,25.40
2023-01-15T04:47:09.695Z,25.80
2023-01-15T04:48:09.687Z,26.60
2023-01-15T04:49:09.660Z,25.60
2023-01-15T04:50:09.667Z,26.20
2023-01-15T04:51:09.635Z,26.90
2023-01-15T04:52:09.660Z,27.60
2023-01-15T04:53:09.627Z,26.30
2023-01-15T04:54:09.604Z,27.80
2023-01-15T04:55:09.583Z,26.90
2023-01-15T04:56:09.641Z,26.20
2023-01-15T04:57:09.555Z,26.50
2023-01-15T04:58:09.554Z,26.60
2023-01-15T04:59:09.569Z,27.60
2023-01-15T05:00:09.577Z,27.90
2023-01-15T05:01:09.620Z,30.30
2023-01-15T05:02:09.673Z,27.70
2023-01-15T05:03:09.483Z,27.70
2023-01-15T05:04:09.513Z,28.10
2023-01-15T05:05:09.457Z,28.20
2023-01-15T05:06:09.472Z,27.70
2023-01-15T05:07:09.434Z,27.20
2023-01-15T05:08:09.459Z,26.80
2023-01-15T05:09:09.396Z,27.70
2023-01-15T05:10:09.405Z,27.80
2023-01-15T05:11:09.379Z,26.70
2023-01-15T05:12:09.376Z,27.20
2023-01-15T05:13:09.347Z,28.60
2023-01-15T05:14:09.356Z,29.50
2023-01-15T05:15:09.328Z,28.50
2023-01-15T05:16:09.356Z,28.60
2023-01-15T05:17:09.312Z,27.60
2023-01-15T05:18:09.306Z,29.30
2023-01-15T05:19:09.507Z,29.00
2023-01-15T05:20:09.277Z,28.40
2023-01-15T05:21:09.257Z,27.70
2023-01-15T05:22:09.267Z,28.00
2023-01-15T05:23:09.219Z,28.40
2023-01-15T05:24:09.230Z,29.20
2023-01-15T05:25:09.196Z,28.50
2023-01-15T05:26:09.196Z,29.70
2023-01-15T05:27:09.226Z,29.50
2023-01-15T05:28:09.182Z,28.50
2023-01-15T05:29:09.145Z,29.50
2023-01-15T05:30:09.147Z,28.60
2023-01-15T05:31:09.177Z,29.80
2023-01-15T05:32:09.759Z,28.70
2023-01-15T05:33:09.101Z,29.00
2023-01-15T05:34:09.104Z,29.40
2023-01-15T05:35:09.077Z,28.50
2023-01-15T05:36:09.067Z,28.80
2023-01-15T05:37:09.051Z,29.00
2023-01-15T05:38:09.047Z,29.10
2023-01-15T05:39:09.015Z,28.20
2023-01-15T05:40:09.025Z,29.10
2023-01-15T05:41:08.985Z,29.30
2023-01-15T05:42:08.985Z,28.60
2023-01-15T05:43:08.969Z,29.10
2023-01-15T05:44:08.964Z,28.80
2023-01-15T05:45:08.949Z,28.20
2023-01-15T05:46:08.973Z,29.70
2023-01-15T05:47:08.922Z,28.60
2023-01-15T05:48:08.956Z,29.00
2023-01-15T05:49:08.906Z,29.40
2023-01-15T05:50:08.907Z,28.20
2023-01-15T05:51:08.877Z,29.10
2023-01-15T05:52:08.857Z,29.90
2023-01-15T05:53:08.847Z,28.80
2023-01-15T05:54:08.825Z,29.10
2023-01-15T05:55:08.823Z,29.80
2023-01-15T05:56:08.844Z,28.50
2023-01-15T05:57:08.806Z,29.30
2023-01-15T05:58:08.784Z,28.50
2023-01-15T05:59:08.799Z,28.40
2023-01-15T06:00:08.776Z,28.90
2023-01-15T06:01:08.866Z,28.90
2023-01-15T06:02:08.736Z,30.60
2023-01-15T06:03:08.740Z,27.90
2023-01-15T06:04:08.718Z,28.30
2023-01-15T06:05:08.727Z,30.00
2023-01-15T06:06:08.680Z,27.70
2023-01-15T06:07:08.694Z,29.80
2023-01-15T06:08:08.654Z,29.00
2023-01-15T06:09:08.661Z,27.90
2023-01-15T06:10:08.638Z,28.60
2023-01-15T06:11:08.608Z,27.90
2023-01-15T06:12:08.588Z,28.70
2023-01-15T06:13:08.599Z,28.80
2023-01-15T06:14:08.584Z,29.90
2023-01-15T06:15:08.566Z,29.20
2023-01-15T06:16:08.562Z,28.60
2023-01-15T06:17:08.549Z,28.10
2023-01-15T06:18:08.516Z,28.70
2023-01-15T06:19:08.514Z,28.80
2023-01-15T06:20:08.509Z,28.20
2023-01-15T06:21:08.525Z,27.40
2023-01-15T06:22:10.872Z,28.30
2023-01-15T06:23:08.467Z,28.60
2023-01-15T06:24:08.635Z,28.80
2023-01-15T06:25:08.456Z,29.40
2023-01-15T06:26:08.446Z,27.80
2023-01-15T06:27:08.425Z,28.40
2023-01-15T06:28:08.384Z,29.10
2023-01-15T06:29:08.387Z,31.10
2023-01-15T06:30:08.371Z,27.50
2023-01-15T06:31:08.383Z,28.80
2023-01-15T06:32:08.357Z,28.70
2023-01-15T06:33:08.342Z,27.80
2023-01-15T06:34:08.316Z,27.60
2023-01-15T06:35:08.304Z,27.50
2023-01-15T06:36:08.290Z,27.60
2023-01-15T06:37:08.292Z,28.60
2023-01-15T06:38:08.266Z,27.80
2023-01-15T06:39:08.256Z,28.20
2023-01-15T06:40:08.235Z,27.60
2023-01-15T06:41:08.238Z,27.60
2023-01-15T06:42:08.225Z,28.00
2023-01-15T06:43:08.194Z,27.70
2023-01-15T06:44:08.194Z,28.90
2023-01-15T06:45:08.168Z,27.20
2023-01-15T06:46:08.149Z,27.20
2023-01-15T06:47:08.194Z,28.70
2023-01-15T06:48:08.140Z,28.10
2023-01-15T06:49:08.124Z,28.60
2023-01-15T06:50:08.101Z,27.60
2023-01-15T06:51:08.107Z,27.60
2023-01-15T06:52:08.077Z,28.60
2023-01-15T06:53:08.097Z,27.70
2023-01-15T06:54:08.076Z,29.50
2023-01-15T06:55:08.043Z,28.20
2023-01-15T06:56:08.049Z,26.90
2023-01-15T06:57:08.015Z,28.70
2023-01-15T06:58:07.986Z,27.20
2023-01-15T06:59:08.012Z,28.40
2023-01-15T07:00:07.976Z,27.20
2023-01-15T07:01:08.025Z,28.10
2023-01-15T07:02:07.956Z,29.30
2023-01-15T07:03:07.954Z,28.60
2023-01-15T07:04:07.956Z,28.00
2023-01-15T07:05:07.941Z,26.80
2023-01-15T07:06:07.914Z,28.30
2023-01-15T07:07:07.899Z,27.40
2023-01-15T07:08:07.866Z,29.20
2023-01-15T07:09:07.865Z,27.80
2023-01-15T07:10:07.843Z,27.50
2023-01-15T07:11:07.837Z,28.30
2023-01-15T07:12:07.835Z,30.00
2023-01-15T07:13:07.814Z,27.60
2023-01-15T07:14:07.814Z,29.60
2023-01-15T07:15:07.803Z,29.60
2023-01-15T07:16:07.776Z,29.50
2023-01-15T07:17:07.779Z,30.10
2023-01-15T07:18:07.787Z,28.50
2023-01-15T07:19:07.737Z,28.80
2023-01-15T07:20:07.721Z,27.70
2023-01-15T07:21:07.718Z,27.10
2023-01-15T07:22:07.687Z,30.40
2023-01-15T07:23:07.688Z,27.20
2023-01-15T07:24:07.676Z,27.40
2023-01-15T07:25:07.658Z,27.80
2023-01-15T07:26:07.637Z,27.00
2023-01-15T07:27:07.635Z,28.20
2023-01-15T07:28:07.608Z,27.80
2023-01-15T07:29:07.605Z,27.70
2023-01-15T07:30:07.607Z,27.80
2023-01-15T07:31:07.605Z,27.10
2023-01-15T07:32:07.592Z,28.00
2023-01-15T07:33:07.569Z,27.10
2023-01-15T07:34:07.543Z,27.70
2023-01-15T07:35:07.539Z,25.70
2023-01-15T07:36:07.527Z,27.50
2023-01-15T07:37:07.521Z,26.40
2023-01-15T07:38:07.485Z,27.00
2023-01-15T07:39:07.489Z,27.90
2023-01-15T07:40:07.456Z,26.50
2023-01-15T07:41:07.464Z,26.00
2023-01-15T07:42:07.430Z,26.70
2023-01-15T07:43:07.468Z,26.90
2023-01-15T07:44:07.421Z,27.30
2023-01-15T07:45:07.407Z,26.60
2023-01-15T07:46:07.379Z,28.10
2023-01-15T07:47:07.386Z,27.30
2023-01-15T07:48:07.359Z,27.10
2023-01-15T07:49:07.367Z,27.10
2023-01-15T07:50:07.345Z,27.00
2023-01-15T07:51:07.333Z,28.30
2023-01-15T07:52:07.306Z,26.30
2023-01-15T07:53:07.316Z,26.90
2023-01-15T07:54:07.303Z,27.20
2023-01-15T07:55:07.269Z,28.10
2023-01-15T07:56:07.262Z,26.70
2023-01-15T07:57:07.281Z,26.30
2023-01-15T07:58:07.224Z,26.60
2023-01-15T07:59:07.239Z,26.70
2023-01-15T08:00:07.223Z,26.10
2023-01-15T08:01:07.317Z,27.20
2023-01-15T08:02:07.243Z,29.60
2023-01-15T08:03:07.165Z,26.80
2023-01-15T08:04:07.207Z,27.90
2023-01-15T08:05:07.145Z,27.30
2023-01-15T08:06:07.121Z,26.60
2023-01-15T08:07:07.135Z,27.40
2023-01-15T08:08:07.097Z,27.00
2023-01-15T08:09:07.086Z,26.40
2023-01-15T08:10:07.069Z,26.40
2023-01-15T08:11:07.067Z,27.40
2023-01-15T08:12:07.070Z,27.50
2023-01-15T08:13:07.059Z,29.00
2023-01-15T08:14:07.032Z,26.90
2023-01-15T08:15:07.017Z,27.30
2023-01-15T08:16:07.056Z,29.80
2023-01-15T08:17:07.007Z,26.10
2023-01-15T08:18:06.988Z,26.70
2023-01-15T08:19:06.957Z,27.50
2023-01-15T08:20:06.932Z,26.70
2023-01-15T08:21:06.936Z,27.40
2023-01-15T08:22:06.917Z,27.60
2023-01-15T08:23:06.931Z,27.80
2023-01-15T08:24:06.885Z,27.10
2023-01-15T08:25:06.875Z,27.00
2023-01-15T08:26:06.855Z,27.70
2023-01-15T08:27:06.867Z,26.30
2023-01-15T08:28:06.857Z,26.30
2023-01-15T08:29:06.840Z,27.60
2023-01-15T08:30:06.817Z,27.40
2023-01-15T08:31:06.810Z,27.70
2023-01-15T08:32:06.786Z,27.10
2023-01-15T08:33:06.784Z,25.90
2023-01-15T08:34:06.777Z,28.10
2023-01-15T08:35:06.754Z,27.70
2023-01-15T08:36:06.729Z,27.20
2023-01-15T08:37:06.725Z,27.40
2023-01-15T08:38:06.709Z,26.10
2023-01-15T08:39:06.704Z,27.10
2023-01-15T08:40:06.696Z,27.20
2023-01-15T08:41:06.685Z,26.90
2023-01-15T08:42:06.645Z,26.60
2023-01-15T08:43:06.648Z,27.30
2023-01-15T08:44:06.626Z,26.90
2023-01-15T08:45:06.624Z,27.10
2023-01-15T08:46:06.685Z,27.80
2023-01-15T08:47:06.594Z,26.80
2023-01-15T08:48:06.577Z,25.50
2023-01-15T08:49:06.708Z,26.90
2023-01-15T08:50:06.608Z,26.10
2023-01-15T08:51:06.546Z,26.30
2023-01-15T08:52:06.525Z,26.80
2023-01-15T08:53:06.525Z,27.10
2023-01-15T08:54:06.496Z,25.80
2023-01-15T08:55:06.514Z,26.10
2023-01-15T08:56:06.464Z,28.50
2023-01-15T08:57:06.468Z,27.00
2023-01-15T08:58:06.456Z,26.00
2023-01-15T08:59:06.445Z,26.70
2023-01-15T09:00:06.416Z,26.20
2023-01-15T09:01:06.503Z,26.90
2023-01-15T09:02:06.493Z,27.70
2023-01-15T09:03:06.395Z,27.10
2023-01-15T09:04:06.375Z,25.30
2023-01-15T09:05:06.426Z,27.20
2023-01-15T09:06:06.350Z,26.80
2023-01-15T09:07:06.426Z,26.00
2023-01-15T09:08:06.328Z,26.00
2023-01-15T09:09:06.349Z,25.90
2023-01-15T09:10:06.301Z,25.90
2023-01-15T09:11:06.309Z,25.10
2023-01-15T09:12:06.273Z,26.90
2023-01-15T09:13:06.266Z,26.10
2023-01-15T09:14:06.247Z,26.80
2023-01-15T09:15:06.272Z,25.50
2023-01-15T09:16:06.241Z,25.60
2023-01-15T09:17:06.217Z,26.30
2023-01-15T09:18:06.194Z,26.70
2023-01-15T09:19:06.187Z,27.30
2023-01-15T09:20:06.165Z,26.10
2023-01-15T09:21:06.188Z,26.90
2023-01-15T09:22:06.144Z,25.60
2023-01-15T09:23:06.137Z,24.60
2023-01-15T09:24:06.118Z,26.70
2023-01-15T09:25:06.109Z,26.30
2023-01-15T09:26:06.098Z,26.90
2023-01-15T09:27:06.106Z,25.70
2023-01-15T09:28:06.070Z,24.90
2023-01-15T09:29:06.080Z,26.90
2023-01-15T09:30:06.036Z,25.70
2023-01-15T09:31:06.088Z,25.40
2023-01-15T09:32:05.995Z,25.60
2023-01-15T09:33:06.013Z,25.40
2023-01-15T09:34:05.983Z,26.30
2023-01-15T09:35:05.975Z,26.30
2023-01-15T09:36:05.955Z,26.20
2023-01-15T09:37:05.954Z,25.80
2023-01-15T09:38:05.945Z,25.50
2023-01-15T09:39:05.927Z,25.40
2023-01-15T09:40:05.908Z,25.50
2023-01-15T09:41:05.895Z,24.80
2023-01-15T09:42:05.877Z,25.50
2023-01-15T09:43:05.869Z,24.90
2023-01-15T09:44:05.860Z,25.70
2023-01-15T09:45:05.852Z,27.20
2023-01-15T09:46:05.843Z,25.80
2023-01-15T09:47:05.814Z,25.10
2023-01-15T09:48:05.796Z,24.90
2023-01-15T09:49:05.805Z,26.80
2023-01-15T09:50:05.783Z,25.00
2023-01-15T09:51:05.779Z,25.00
2023-01-15T09:52:05.736Z,25.70
2023-01-15T09:53:05.746Z,24.90
2023-01-15T09:54:05.724Z,25.40
2023-01-15T09:55:05.751Z,24.40
2023-01-15T09:56:05.695Z,24.30
2023-01-15T09:57:05.686Z,24.70
2023-01-15T09:58:05.671Z,24.80
2023-01-15T09:59:05.665Z,25.10
2023-01-15T10:00:05.647Z,24.60
2023-01-15T10:01:05.706Z,24.20
2023-01-15T10:02:05.626Z,25.40
2023-01-15T10:03:05.669Z,25.80
2023-01-15T10:04:05.628Z,24.40
2023-01-15T10:05:07.530Z,24.00
2023-01-15T10:06:05.557Z,24.30
2023-01-15T10:07:05.558Z,24.50
2023-01-15T10:08:05.544Z,24.40
2023-01-15T10:09:05.526Z,23.50
2023-01-15T10:10:05.517Z,24.40
2023-01-15T10:11:05.505Z,24.40
2023-01-15T10:12:05.588Z,24.70
2023-01-15T10:13:05.477Z,25.80
2023-01-15T10:14:05.466Z,23.70
2023-01-15T10:15:05.455Z,23.50
2023-01-15T10:16:05.497Z,24.20
2023-01-15T10:17:05.427Z,23.50
2023-01-15T10:18:05.444Z,26.50
2023-01-15T10:19:05.395Z,24.90
2023-01-15T10:20:05.406Z,23.80
2023-01-15T10:21:05.364Z,23.90
2023-01-15T10:22:05.364Z,23.70
2023-01-15T10:23:05.366Z,24.30
2023-01-15T10:24:05.373Z,24.50
2023-01-15T10:25:05.320Z,23.40
2023-01-15T10:26:05.325Z,23.40
2023-01-15T10:27:05.308Z,24.20
2023-01-15T10:28:05.307Z,24.60
2023-01-15T10:29:05.267Z,23.50
2023-01-15T10:30:05.285Z,24.50
2023-01-15T10:31:05.305Z,23.40
2023-01-15T10:32:05.237Z,23.80
2023-01-15T10:33:05.215Z,23.30
2023-01-15T10:34:05.256Z,23.70
2023-01-15T10:35:05.185Z,23.00
2023-01-15T10:36:05.184Z,23.60
2023-01-15T10:37:05.177Z,23.80
2023-01-15T10:38:05.175Z,22.60
2023-01-15T10:39:05.179Z,22.70
2023-01-15T10:40:05.135Z,23.20
2023-01-15T10:41:05.112Z,23.70
2023-01-15T10:42:05.107Z,23.90
2023-01-15T10:43:12.170Z,25.70
2023-01-15T10:44:05.073Z,22.90
2023-01-15T10:45:05.062Z,23.20
2023-01-15T10:46:05.094Z,22.90
2023-01-15T10:47:05.025Z,23.70
2023-01-15T10:48:05.033Z,24.00
2023-01-15T10:49:05.077Z,24.30
2023-01-15T10:50:05.021Z,23.50
2023-01-15T10:51:04.986Z,23.20
2023-01-15T10:52:04.971Z,24.00
2023-01-15T10:53:04.951Z,22.80
2023-01-15T10:54:04.974Z,24.10
2023-01-15T10:55:04.925Z,23.30
2023-01-15T10:56:04.930Z,23.60
2023-01-15T10:57:04.902Z,23.10
2023-01-15T10:58:10.165Z,22.90
2023-01-15T10:59:05.883Z,24.00
2023-01-15T11:00:04.886Z,23.20
2023-01-15T11:01:04.999Z,24.30
2023-01-15T11:02:04.957Z,23.50
2023-01-15T11:03:04.876Z,22.60
2023-01-15T11:04:04.821Z,23.10
2023-01-15T11:05:04.802Z,23.40
2023-01-15T11:06:04.817Z,24.30
2023-01-15T11:07:04.760Z,23.20
2023-01-15T11:09:05.918Z,23.30
2023-01-15T11:09:09.896Z,25.30
2023-01-15T11:10:04.752Z,22.70
2023-01-15T11:11:04.725Z,23.30
2023-01-15T11:12:04.722Z,24.20
2023-01-15T11:13:04.690Z,23.50
2023-01-15T11:14:04.683Z,24.00
2023-01-15T11:15:04.680Z,23.60
2023-01-15T11:16:04.699Z,24.50
2023-01-15T11:17:04.673Z,24.00
2023-01-15T11:18:04.640Z,23.40
2023-01-15T11:19:04.615Z,22.80
2023-01-15T11:20:04.614Z,23.70
2023-01-15T11:21:04.608Z,23.20
2023-01-15T11:22:04.592Z,23.20
2023-01-15T11:23:04.562Z,23.00
2023-01-15T11:24:04.564Z,22.90
2023-01-15T11:25:04.564Z,22.40
2023-01-15T11:26:04.597Z,22.60
2023-01-15T11:27:04.514Z,22.80
2023-01-15T11:28:04.542Z,22.70
2023-01-15T11:29:04.484Z,22.80
2023-01-15T11:30:04.495Z,23.40
2023-01-15T11:31:04.527Z,22.90
2023-01-15T11:32:04.463Z,22.20
2023-01-15T11:33:04.441Z,23.00
2023-01-15T11:34:04.423Z,23.30
2023-01-15T11:35:04.461Z,22.00
2023-01-15T11:36:04.412Z,22.10
2023-01-15T11:37:04.402Z,22.70
2023-01-15T11:38:04.383Z,22.30
2023-01-15T11:39:04.397Z,22.00
2023-01-15T11:40:04.385Z,22.50
2023-01-15T11:41:04.337Z,22.40
2023-01-15T11:42:04.365Z,22.20
2023-01-15T11:43:04.333Z,22.60
2023-01-15T11:44:04.304Z,23.20
2023-01-15T11:45:04.275Z,22.70
2023-01-15T11:46:04.338Z,21.50
2023-01-15T11:47:04.320Z,21.60
2023-01-15T11:48:04.270Z,22.60
2023-01-15T11:49:04.311Z,22.10
2023-01-15T11:50:04.238Z,22.50
2023-01-15T11:51:04.194Z,22.30
2023-01-15T11:52:04.202Z,22.30
2023-01-15T11:53:04.205Z,22.40
2023-01-15T11:54:04.163Z,22.10
2023-01-15T11:55:04.207Z,23.60
2023-01-15T11:56:04.152Z,22.30
2023-01-15T11:57:04.175Z,22.60
2023-01-15T11:58:04.147Z,22.10
2023-01-15T11:59:04.132Z,23.60
2023-01-15T12:00:04.135Z,21.90
2023-01-15T12:01:04.127Z,22.00
2023-01-15T12:02:04.080Z,22.20
2023-01-15T12:03:04.066Z,21.90
2023-01-15T12:04:04.155Z,22.20
2023-01-15T12:05:04.033Z,21.10
2023-01-15T12:06:04.035Z,21.80
2023-01-15T12:07:03.981Z,21.90
2023-01-15T12:08:04.009Z,22.50
2023-01-15T12:09:04.118Z,21.50
2023-01-15T12:10:04.218Z,23.20
2023-01-15T12:11:14.202Z,21.40
2023-01-15T12:12:04.936Z,21.80
2023-01-15T12:13:03.931Z,22.80
2023-01-15T12:14:03.935Z,22.30
2023-01-15T12:15:03.968Z,21.90
2023-01-15T12:16:04.075Z,22.10
2023-01-15T12:17:03.888Z,22.10
2023-01-15T12:18:03.857Z,21.90
2023-01-15T12:19:03.958Z,22.10
2023-01-15T12:20:03.866Z,22.90
2023-01-15T12:21:03.824Z,22.10
2023-01-15T12:22:03.885Z,21.30
2023-01-15T12:23:03.845Z,21.90
2023-01-15T12:24:03.799Z,22.00
2023-01-15T12:25:03.799Z,21.40
2023-01-15T12:26:03.752Z,22.00
2023-01-15T12:27:05.806Z,22.60
2023-01-15T12:28:03.727Z,21.70
2023-01-15T12:29:03.715Z,22.00
2023-01-15T12:30:03.820Z,21.80
2023-01-15T12:31:03.755Z,21.60
2023-01-15T12:32:03.693Z,21.60
2023-01-15T12:33:03.692Z,22.50
2023-01-15T12:34:03.682Z,22.20
2023-01-15T12:35:03.631Z,22.50
2023-01-15T12:36:03.744Z,22.60
2023-01-15T12:37:03.620Z,22.20
2023-01-15T12:38:03.605Z,22.00
2023-01-15T12:39:03.673Z,22.50
2023-01-15T12:40:03.613Z,23.80
2023-01-15T12:41:03.561Z,22.20
2023-01-15T12:42:03.541Z,22.40
2023-01-15T12:43:03.525Z,23.10
2023-01-15T12:44:03.563Z,22.90
2023-01-15T12:45:03.526Z,22.90
2023-01-15T12:46:03.503Z,22.20
2023-01-15T12:47:03.464Z,22.40
2023-01-15T12:48:03.487Z,22.10
2023-01-15T12:49:03.497Z,21.40
2023-01-15T12:50:03.455Z,22.00
2023-01-15T12:51:03.454Z,22.10
2023-01-15T12:52:03.415Z,21.70